sensor_id;sensor_type;location;lat;lon;timestamp;pressure;altitude;pressure_sealevel;temperature;humidity
4123;BME280;2075;51.062;6.920;2023-01-09T00:02:28;-11667.00;;;-144.48;100.00
4123;BME280;2075;51.062;6.920;2023-01-09T00:05:15;-11667.00;;;-144.48;100.00
4123;BME280;2075;51.062;6.920;2023-01-09T00:08:02;-11667.00;;;-144.48;100.00
4123;BME280;2075;51.062;6.920;2023-01-09T00:10:48;-11667.00;;;-144.48;100.00
4123;BME280;2075;51.062;6.920;2023-01-09T00:13:35;-11667.00;;;-144.48;100.00
4123;BME280;2075;51.062;6.920;2023-01-09T00:16:20;-11667.00;;;-144.48;100.00
4123;BME280;2075;51.062;6.920;2023-01-09T00:19:06;-11667.00;;;-144.48;100.00
4123;BME280;2075;51.062;6.920;2023-01-09T00:21:51;-11667.00;;;-144.48;100.00
4123;BME280;2075;51.062;6.920;2023-01-09T00:24:37;-11667.00;;;-144.48;100.00
4123;BME280;2075;51.062;6.920;2023-01-09T00:27:22;-11667.00;;;-144.48;100.00
4123;BME280;2075;51.062;6.920;2023-01-09T00:30:10;-11667.00;;;-144.48;100.00
4123;BME280;2075;51.062;6.920;2023-01-09T00:32:55;-11667.00;;;-144.48;100.00
4123;BME280;2075;51.062;6.920;2023-01-09T00:35:41;-11667.00;;;-144.48;100.00
4123;BME280;2075;51.062;6.920;2023-01-09T00:38:26;-11667.00;;;-144.48;100.00
4123;BME280;2075;51.062;6.920;2023-01-09T00:41:14;-11667.00;;;-144.48;100.00
4123;BME280;2075;51.062;6.920;2023-01-09T00:44:10;-11667.00;;;-144.48;100.00
4123;BME280;2075;51.062;6.920;2023-01-09T00:46:59;-11667.00;;;-144.48;100.00
4123;BME280;2075;51.062;6.920;2023-01-09T00:49:45;-11667.00;;;-144.48;100.00
4123;BME280;2075;51.062;6.920;2023-01-09T00:52:33;-11667.00;;;-144.48;100.00
4123;BME280;2075;51.062;6.920;2023-01-09T00:55:20;-11667.00;;;-144.48;100.00
4123;BME280;2075;51.062;6.920;2023-01-09T00:58:05;-11667.00;;;-144.48;100.00
4123;BME280;2075;51.062;6.920;2023-01-09T01:00:51;-11667.00;;;-144.48;100.00
4123;BME280;2075;51.062;6.920;2023-01-09T01:03:38;-11667.00;;;-144.48;100.00
4123;BME280;2075;51.062;6.920;2023-01-09T01:06:23;-11667.00;;;-144.48;100.00
4123;BME280;2075;51.062;6.920;2023-01-09T01:09:26;-11667.00;;;-144.48;100.00
4123;BME280;2075;51.062;6.920;2023-01-09T01:12:12;-11665.53;;;-144.48;100.00
4123;BME280;2075;51.062;6.920;2023-01-09T01:14:57;-11413.53;;;-144.48;100.00
4123;BME280;2075;51.062;6.920;2023-01-09T01:17:43;-11413.53;;;-144.48;100.00
4123;BME280;2075;51.062;6.920;2023-01-09T01:20:30;-10153.28;;;-144.48;100.00
4123;BME280;2075;51.062;6.920;2023-01-09T01:23:15;-9144.72;;;-144.48;100.00
4123;BME280;2075;51.062;6.920;2023-01-09T01:26:03;-7883.59;;;-144.48;100.00
4123;BME280;2075;51.062;6.920;2023-01-09T01:28:49;-6369.59;;;-144.48;100.00
4123;BME280;2075;51.062;6.920;2023-01-09T01:31:34;-6621.97;;;-144.48;100.00
4123;BME280;2075;51.062;6.920;2023-01-09T01:34:20;-5107.41;;;-144.48;100.00
4123;BME280;2075;51.062;6.920;2023-01-09T01:37:06;-5107.41;;;-144.48;100.00
4123;BME280;2075;51.062;6.920;2023-01-09T01:39:52;-5359.88;;;-144.48;100.00
4123;BME280;2075;51.062;6.920;2023-01-09T01:42:44;-5359.88;;;-144.48;100.00
4123;BME280;2075;51.062;6.920;2023-01-09T01:45:30;-5359.88;;;-144.48;100.00
4123;BME280;2075;51.062;6.920;2023-01-09T01:48:18;-4602.38;;;-144.48;100.00
4123;BME280;2075;51.062;6.920;2023-01-09T01:51:05;-4349.84;;;-144.48;100.00
4123;BME280;2075;51.062;6.920;2023-01-09T01:53:57;-3086.84;;;-144.48;100.00
4123;BME280;2075;51.062;6.920;2023-01-09T01:56:48;-3339.50;;;-144.48;100.00
4123;BME280;2075;51.062;6.920;2023-01-09T01:59:38;-3339.50;;;-144.48;100.00
4123;BME280;2075;51.062;6.920;2023-01-09T02:02:29;-2834.19;;;-144.48;100.00
4123;BME280;2075;51.062;6.920;2023-01-09T02:05:15;-1823.38;;;-144.48;100.00
4123;BME280;2075;51.062;6.920;2023-01-09T02:08:00;-1317.84;;;-144.48;100.00
4123;BME280;2075;51.062;6.920;2023-01-09T02:10:48;-2076.13;;;-144.48;100.00
4123;BME280;2075;51.062;6.920;2023-01-09T02:13:35;-1065.06;;;-144.48;100.00
4123;BME280;2075;51.062;6.920;2023-01-09T02:16:32;-53.69;;;-144.48;100.00
4123;BME280;2075;51.062;6.920;2023-01-09T02:19:44;-1317.84;;;-144.48;100.00
4123;BME280;2075;51.062;6.920;2023-01-09T02:22:47;199.19;;;-144.48;100.00
4123;BME280;2075;51.062;6.920;2023-01-09T02:26:00;1210.94;;;-144.48;100.00
4123;BME280;2075;51.062;6.920;2023-01-09T02:29:11;199.19;;;-144.48;100.00
4123;BME280;2075;51.062;6.920;2023-01-09T02:32:09;199.19;;;-144.48;100.00
4123;BME280;2075;51.062;6.920;2023-01-09T02:35:07;1463.94;;;-144.48;100.00
4123;BME280;2075;51.062;6.920;2023-01-09T02:38:05;-812.25;;;-144.48;100.00
4123;BME280;2075;51.062;6.920;2023-01-09T02:40:57;-1570.63;;;-144.48;100.00
4123;BME280;2075;51.062;6.920;2023-01-09T02:43:44;-53.69;;;-144.48;100.00
4123;BME280;2075;51.062;6.920;2023-01-09T02:46:29;199.19;;;-144.48;100.00
4123;BME280;2075;51.062;6.920;2023-01-09T02:49:16;1210.94;;;-144.48;100.00
4123;BME280;2075;51.062;6.920;2023-01-09T02:52:14;705.03;;;-144.48;100.00
4123;BME280;2075;51.062;6.920;2023-01-09T02:55:11;957.97;;;-144.48;100.00
4123;BME280;2075;51.062;6.920;2023-01-09T02:58:08;-1570.63;;;-144.48;100.00
4123;BME280;2075;51.062;6.920;2023-01-09T03:01:01;-2076.13;;;-144.48;100.00
4123;BME280;2075;51.062;6.920;2023-01-09T03:03:58;-1065.06;;;-144.48;100.00
4123;BME280;2075;51.062;6.920;2023-01-09T03:06:52;-559.44;;;-144.48;100.00
4123;BME280;2075;51.062;6.920;2023-01-09T03:09:41;705.03;;;-144.48;100.00
4123;BME280;2075;51.062;6.920;2023-01-09T03:12:31;452.09;;;-144.48;100.00
4123;BME280;2075;51.062;6.920;2023-01-09T03:15:19;705.03;;;-144.48;100.00
4123;BME280;2075;51.062;6.920;2023-01-09T03:18:08;957.97;;;-144.48;100.00
4123;BME280;2075;51.062;6.920;2023-01-09T03:20:55;2223.00;;;-144.48;100.00
4123;BME280;2075;51.062;6.920;2023-01-09T03:23:52;4248.06;;;-144.48;100.00
4123;BME280;2075;51.062;6.920;2023-01-09T03:26:37;5514.38;;;-144.48;100.00
4123;BME280;2075;51.062;6.920;2023-01-09T03:29:23;7541.47;;;-144.48;100.00
4123;BME280;2075;51.062;6.920;2023-01-09T03:32:08;7288.00;;;-144.48;100.00
4123;BME280;2075;51.062;6.920;2023-01-09T03:34:54;6274.38;;;-144.48;100.00
4123;BME280;2075;51.062;6.920;2023-01-09T03:37:39;8555.47;;;-144.48;100.00
4123;BME280;2075;51.062;6.920;2023-01-09T03:40:25;11345.63;;;-144.48;100.00
4123;BME280;2075;51.062;6.920;2023-01-09T03:43:11;12360.81;;;-144.48;100.00
4123;BME280;2075;51.062;6.920;2023-01-09T03:45:56;13376.31;;;-144.48;100.00
4123;BME280;2075;51.062;6.920;2023-01-09T03:48:42;10838.16;;;-144.48;100.00
4123;BME280;2075;51.062;6.920;2023-01-09T03:51:28;7288.00;;;-144.48;100.00
4123;BME280;2075;51.062;6.920;2023-01-09T03:54:13;5514.38;;;-144.48;100.00
4123;BME280;2075;51.062;6.920;2023-01-09T03:57:00;4501.28;;;-144.48;100.00
4123;BME280;2075;51.062;6.920;2023-01-09T03:59:45;4754.53;;;-144.48;100.00
4123;BME280;2075;51.062;6.920;2023-01-09T04:02:31;3741.69;;;-144.48;100.00
4123;BME280;2075;51.062;6.920;2023-01-09T04:05:16;3488.53;;;-144.48;100.00
4123;BME280;2075;51.062;6.920;2023-01-09T04:08:02;1716.94;;;-144.48;100.00
4123;BME280;2075;51.062;6.920;2023-01-09T04:10:48;-1065.06;;;-144.48;100.00
4123;BME280;2075;51.062;6.920;2023-01-09T04:13:35;-1065.06;;;-144.48;100.00
4123;BME280;2075;51.062;6.920;2023-01-09T04:16:21;-2834.19;;;-144.48;100.00
4123;BME280;2075;51.062;6.920;2023-01-09T04:19:06;-4097.28;;;-144.48;100.00
4123;BME280;2075;51.062;6.920;2023-01-09T04:21:51;-4097.28;;;-144.48;100.00
4123;BME280;2075;51.062;6.920;2023-01-09T04:24:37;-4854.91;;;-144.48;100.00
4123;BME280;2075;51.062;6.920;2023-01-09T04:27:22;-5864.78;;;-144.48;100.00
4123;BME280;2075;51.062;6.920;2023-01-09T04:30:10;-4854.91;;;-144.48;100.00
4123;BME280;2075;51.062;6.920;2023-01-09T04:32:56;-3592.09;;;-144.48;100.00
4123;BME280;2075;51.062;6.920;2023-01-09T04:35:41;-3592.09;;;-144.48;100.00
4123;BME280;2075;51.062;6.920;2023-01-09T04:38:26;-4602.38;;;-144.48;100.00
4123;BME280;2075;51.062;6.920;2023-01-09T04:41:11;-5864.78;;;-144.48;100.00
4123;BME280;2075;51.062;6.920;2023-01-09T04:44:19;-5612.34;;;-144.48;100.00
4123;BME280;2075;51.062;6.920;2023-01-09T04:47:06;-4097.28;;;-144.48;100.00
4123;BME280;2075;51.062;6.920;2023-01-09T04:49:51;-5864.78;;;-144.48;100.00
4123;BME280;2075;51.062;6.920;2023-01-09T04:52:36;-5359.88;;;-144.48;100.00
4123;BME280;2075;51.062;6.920;2023-01-09T04:55:22;-4602.38;;;-144.48;100.00
4123;BME280;2075;51.062;6.920;2023-01-09T04:58:07;-5107.41;;;-144.48;100.00
4123;BME280;2075;51.062;6.920;2023-01-09T05:00:52;-3844.69;;;-144.48;100.00
4123;BME280;2075;51.062;6.920;2023-01-09T05:03:39;-3339.50;;;-144.48;100.00
4123;BME280;2075;51.062;6.920;2023-01-09T05:06:25;705.03;;;-144.48;100.00
4123;BME280;2075;51.062;6.920;2023-01-09T05:09:10;2729.16;;;-144.48;100.00
4123;BME280;2075;51.062;6.920;2023-01-09T05:11:55;5261.06;;;-144.48;100.00
4123;BME280;2075;51.062;6.920;2023-01-09T05:14:41;7794.94;;;-144.48;100.00
4123;BME280;2075;51.062;6.920;2023-01-09T05:17:26;9316.19;;;-144.48;100.00
4123;BME280;2075;51.062;6.920;2023-01-09T05:20:13;12614.66;;;-144.48;100.00
4123;BME280;2075;51.062;6.920;2023-01-09T05:22:59;14900.13;;;-144.48;100.00
4123;BME280;2075;51.062;6.920;2023-01-09T05:25:44;15916.41;;;-144.48;100.00
4123;BME280;2075;51.062;6.920;2023-01-09T05:28:29;22529.81;;;-144.48;100.00
4123;BME280;2075;51.062;6.920;2023-01-09T05:31:15;26351.25;;;-144.48;100.00
4123;BME280;2075;51.062;6.920;2023-01-09T05:34:00;29921.88;;;-144.48;100.00
4123;BME280;2075;51.062;6.920;2023-01-09T05:36:47;28391.13;;;-144.48;100.00
4123;BME280;2075;51.062;6.920;2023-01-09T05:39:33;31453.31;;;-144.48;100.00
4123;BME280;2075;51.062;6.920;2023-01-09T05:42:18;34262.75;;;-144.48;100.00
4123;BME280;2075;51.062;6.920;2023-01-09T05:45:05;34773.81;;;-144.48;100.00
4123;BME280;2075;51.062;6.920;2023-01-09T05:47:50;37841.84;;;-144.48;100.00
4123;BME280;2075;51.062;6.920;2023-01-09T05:50:35;36563.16;;;-144.48;100.00
4123;BME280;2075;51.062;6.920;2023-01-09T05:53:22;35540.56;;;-144.48;100.00
4123;BME280;2075;51.062;6.920;2023-01-09T05:56:07;39121.03;;;-144.48;100.00
4123;BME280;2075;51.062;6.920;2023-01-09T05:58:53;40912.69;;;-144.48;100.00
4123;BME280;2075;51.062;6.920;2023-01-09T06:01:38;42961.47;;;-144.48;100.00
4123;BME280;2075;51.062;6.920;2023-01-09T06:04:25;46806.28;;;-144.48;100.00
4123;BME280;2075;51.062;6.920;2023-01-09T06:07:12;48088.88;;;-144.48;100.00
4123;BME280;2075;51.062;6.920;2023-01-09T06:09:59;48345.44;;;-144.48;100.00
4123;BME280;2075;51.062;6.920;2023-01-09T06:12:46;48602.03;;;-144.48;100.00
4123;BME280;2075;51.062;6.920;2023-01-09T06:15:33;54252.06;;;-144.48;100.00
4123;BME280;2075;51.062;6.920;2023-01-09T06:18:18;54252.06;;;-144.48;100.00
4123;BME280;2075;51.062;6.920;2023-01-09T06:21:04;53224.09;;;-144.48;100.00
4123;BME280;2075;51.062;6.920;2023-01-09T06:23:50;55280.38;;;-144.48;100.00
4123;BME280;2075;51.062;6.920;2023-01-09T06:26:36;53738.03;;;-144.48;100.00
4123;BME280;2075;51.062;6.920;2023-01-09T06:29:22;51939.56;;;-144.48;100.00
4123;BME280;2075;51.062;6.920;2023-01-09T06:32:07;48345.44;;;-144.48;100.00
4123;BME280;2075;51.062;6.920;2023-01-09T06:34:53;47062.78;;;-144.48;100.00
4123;BME280;2075;51.062;6.920;2023-01-09T06:37:38;46806.28;;;-144.48;100.00
4123;BME280;2075;51.062;6.920;2023-01-09T06:40:24;48088.88;;;-144.48;100.00
4123;BME280;2075;51.062;6.920;2023-01-09T06:43:10;45780.56;;;-144.48;100.00
4123;BME280;2075;51.062;6.920;2023-01-09T06:45:56;48088.88;;;-144.48;100.00
4123;BME280;2075;51.062;6.920;2023-01-09T06:48:41;50398.75;;;-144.48;100.00
4123;BME280;2075;51.062;6.920;2023-01-09T06:51:26;51425.88;;;-144.48;100.00
4123;BME280;2075;51.062;6.920;2023-01-09T06:54:12;49371.94;;;-144.48;100.00
4123;BME280;2075;51.062;6.920;2023-01-09T06:56:57;45780.56;;;-144.48;100.00
4123;BME280;2075;51.062;6.920;2023-01-09T06:59:44;43730.06;;;-144.48;100.00
4123;BME280;2075;51.062;6.920;2023-01-09T07:02:29;40400.69;;;-144.48;100.00
4123;BME280;2075;51.062;6.920;2023-01-09T07:05:15;42961.47;;;-144.48;100.00
4123;BME280;2075;51.062;6.920;2023-01-09T07:08:00;41424.75;;;-144.48;100.00
4123;BME280;2075;51.062;6.920;2023-01-09T07:10:46;38865.16;;;-144.48;100.00
4123;BME280;2075;51.062;6.920;2023-01-09T07:13:31;43473.84;;;-144.48;100.00
4123;BME280;2075;51.062;6.920;2023-01-09T07:16:18;44755.16;;;-144.48;100.00
4123;BME280;2075;51.062;6.920;2023-01-09T07:19:03;41936.91;;;-144.48;100.00
4123;BME280;2075;51.062;6.920;2023-01-09T07:21:49;41168.72;;;-144.48;100.00
4123;BME280;2075;51.062;6.920;2023-01-09T07:24:34;43986.31;;;-144.48;100.00
4123;BME280;2075;51.062;6.920;2023-01-09T07:27:19;42449.16;;;-144.48;100.00
4123;BME280;2075;51.062;6.920;2023-01-09T07:30:07;40912.69;;;-144.48;100.00
4123;BME280;2075;51.062;6.920;2023-01-09T07:32:54;39376.91;;;-144.48;100.00
4123;BME280;2075;51.062;6.920;2023-01-09T07:35:39;36307.50;;;-144.48;100.00
4123;BME280;2075;51.062;6.920;2023-01-09T07:38:25;41424.75;;;-144.48;100.00
4123;BME280;2075;51.062;6.920;2023-01-09T07:41:10;38353.47;;;-144.48;100.00
4123;BME280;2075;51.062;6.920;2023-01-09T07:43:56;42449.16;;;-144.48;100.00
4123;BME280;2075;51.062;6.920;2023-01-09T07:46:42;42193.03;;;-144.48;100.00
4123;BME280;2075;51.062;6.920;2023-01-09T07:49:28;40656.66;;;-144.48;100.00
4123;BME280;2075;51.062;6.920;2023-01-09T07:52:14;38865.16;;;-144.48;100.00
4123;BME280;2075;51.062;6.920;2023-01-09T07:54:59;39888.75;;;-144.48;100.00
4123;BME280;2075;51.062;6.920;2023-01-09T07:57:47;40144.72;;;-144.48;100.00
4123;BME280;2075;51.062;6.920;2023-01-09T08:00:33;39376.91;;;-144.48;100.00
4123;BME280;2075;51.062;6.920;2023-01-09T08:03:18;34262.75;;;-144.48;100.00
4123;BME280;2075;51.062;6.920;2023-01-09T08:06:05;30942.75;;;-144.48;100.00
4123;BME280;2075;51.062;6.920;2023-01-09T08:08:52;29666.69;;;-144.48;100.00
4123;BME280;2075;51.062;6.920;2023-01-09T08:11:37;29411.56;;;-144.48;100.00
4123;BME280;2075;51.062;6.920;2023-01-09T08:14:22;30942.75;;;-144.48;100.00
4123;BME280;2075;51.062;6.920;2023-01-09T08:17:08;25076.94;;;-144.48;100.00
4123;BME280;2075;51.062;6.920;2023-01-09T08:19:54;21257.00;;;-144.48;100.00
4123;BME280;2075;51.062;6.920;2023-01-09T08:22:42;24312.59;;;-144.48;100.00
4123;BME280;2075;51.062;6.920;2023-01-09T08:25:44;26861.09;;;-144.48;100.00
4123;BME280;2075;51.062;6.920;2023-01-09T08:28:30;28391.13;;;-144.48;100.00
4123;BME280;2075;51.062;6.920;2023-01-09T08:31:15;26861.09;;;-144.48;100.00
4123;BME280;2075;51.062;6.920;2023-01-09T08:34:01;27116.06;;;-144.48;100.00
4123;BME280;2075;51.062;6.920;2023-01-09T08:36:47;23548.44;;;-144.48;100.00
4123;BME280;2075;51.062;6.920;2023-01-09T08:39:33;21766.06;;;-144.48;100.00
4123;BME280;2075;51.062;6.920;2023-01-09T08:42:19;23548.44;;;-144.48;100.00
4123;BME280;2075;51.062;6.920;2023-01-09T08:45:22;22784.44;;;-144.48;100.00
4123;BME280;2075;51.062;6.920;2023-01-09T08:48:25;24312.59;;;-144.48;100.00
4123;BME280;2075;51.062;6.920;2023-01-09T08:51:11;24567.38;;;-144.48;100.00
4123;BME280;2075;51.062;6.920;2023-01-09T08:53:56;23293.75;;;-144.48;100.00
4123;BME280;2075;51.062;6.920;2023-01-09T08:56:43;22275.22;;;-144.48;100.00
4123;BME280;2075;51.062;6.920;2023-01-09T08:59:29;19475.84;;;-144.48;100.00
4123;BME280;2075;51.062;6.920;2023-01-09T09:02:14;19984.66;;;-144.48;100.00
4123;BME280;2075;51.062;6.920;2023-01-09T09:05:00;23803.16;;;-144.48;100.00
4123;BME280;2075;51.062;6.920;2023-01-09T09:07:46;24822.16;;;-144.48;100.00
4123;BME280;2075;51.062;6.920;2023-01-09T09:10:32;25331.78;;;-144.48;100.00
4123;BME280;2075;51.062;6.920;2023-01-09T09:13:19;30432.28;;;-144.48;100.00
4123;BME280;2075;51.062;6.920;2023-01-09T09:16:05;31963.94;;;-144.48;100.00
4123;BME280;2075;51.062;6.920;2023-01-09T09:18:51;30432.28;;;-144.48;100.00
4123;BME280;2075;51.062;6.920;2023-01-09T09:21:37;30432.28;;;-144.48;100.00
4123;BME280;2075;51.062;6.920;2023-01-09T09:24:22;25586.63;;;-144.48;100.00
4123;BME280;2075;51.062;6.920;2023-01-09T09:27:08;22275.22;;;-144.48;100.00
4123;BME280;2075;51.062;6.920;2023-01-09T09:29:54;18458.47;;;-144.48;100.00
4123;BME280;2075;51.062;6.920;2023-01-09T09:32:40;15154.19;;;-144.48;100.00
4123;BME280;2075;51.062;6.920;2023-01-09T09:35:26;12360.81;;;-144.48;100.00
4123;BME280;2075;51.062;6.920;2023-01-09T09:38:11;11853.19;;;-144.48;100.00
4123;BME280;2075;51.062;6.920;2023-01-09T09:41:14;9316.19;;;-144.48;100.00
4123;BME280;2075;51.062;6.920;2023-01-09T09:44:24;11091.88;;;-144.48;100.00
4123;BME280;2075;51.062;6.920;2023-01-09T09:47:38;12107.00;;;-144.48;100.00
4123;BME280;2075;51.062;6.920;2023-01-09T09:50:44;10077.09;;;-144.48;100.00
4123;BME280;2075;51.062;6.920;2023-01-09T09:53:37;11599.41;;;-144.48;100.00
4123;BME280;2075;51.062;6.920;2023-01-09T09:56:28;13122.41;;;-144.48;100.00
4123;BME280;2075;51.062;6.920;2023-01-09T09:59:18;15916.41;;;-144.48;100.00
4123;BME280;2075;51.062;6.920;2023-01-09T10:02:13;22275.22;;;-144.48;100.00
4123;BME280;2075;51.062;6.920;2023-01-09T10:05:11;23293.75;;;-144.48;100.00
4123;BME280;2075;51.062;6.920;2023-01-09T10:08:03;27881.03;;;-144.48;100.00
4123;BME280;2075;51.062;6.920;2023-01-09T10:10:51;29921.88;;;-144.48;100.00
4123;BME280;2075;51.062;6.920;2023-01-09T10:13:37;30177.06;;;-144.48;100.00
4123;BME280;2075;51.062;6.920;2023-01-09T10:16:51;30687.50;;;-144.48;100.00
4123;BME280;2075;51.062;6.920;2023-01-09T10:20:16;37586.06;;;-144.48;100.00
4123;BME280;2075;51.062;6.920;2023-01-09T10:23:17;39888.75;;;-144.48;100.00
4123;BME280;2075;51.062;6.920;2023-01-09T10:26:10;51169.06;;;-144.48;100.00
4123;BME280;2075;51.062;6.920;2023-01-09T10:29:17;70681.63;;;-144.48;100.00
4123;BME280;2075;51.062;6.920;2023-01-09T10:32:18;73414.81;;;-144.48;100.00
4123;BME280;2075;51.062;6.920;2023-01-09T10:35:25;75497.47;;;-144.48;100.00
4123;BME280;2075;51.062;6.920;2023-01-09T10:38:18;75584.34;;;-144.48;100.00
4123;BME280;2075;51.062;6.920;2023-01-09T10:41:08;84095.91;;;-144.48;100.00
4123;BME280;2075;51.062;6.920;2023-01-09T10:43:57;81315.75;;;-144.48;100.00
4123;BME280;2075;51.062;6.920;2023-01-09T10:46:47;86531.63;;;-144.48;100.00
4123;BME280;2075;51.062;6.920;2023-01-09T10:49:35;90470.53;;;-144.48;100.00
4123;BME280;2075;51.062;6.920;2023-01-09T10:52:31;90192.53;;;-144.48;100.00
4123;BME280;2075;51.062;6.920;2023-01-09T10:55:21;90438.06;;;-144.48;100.00
4123;BME280;2075;51.062;6.920;2023-01-09T10:58:10;90046.41;;;-144.48;100.00
4123;BME280;2075;51.062;6.920;2023-01-09T11:00:57;89299.75;;;-144.48;100.00
4123;BME280;2075;51.062;6.920;2023-01-09T11:03:44;89912.50;;;-144.48;99.13
4123;BME280;2075;51.062;6.920;2023-01-09T11:06:35;89421.50;;;-144.48;99.63
4123;BME280;2075;51.062;6.920;2023-01-09T11:09:23;88135.47;;;-144.48;100.00
4123;BME280;2075;51.062;6.920;2023-01-09T11:12:23;86444.47;;;-144.48;100.00
4123;BME280;2075;51.062;6.920;2023-01-09T11:15:22;87778.53;;;-144.48;99.84
4123;BME280;2075;51.062;6.920;2023-01-09T11:18:18;88857.53;;;-144.48;99.48
4123;BME280;2075;51.062;6.920;2023-01-09T11:21:23;89522.94;;;-144.48;99.13
4123;BME280;2075;51.062;6.920;2023-01-09T11:24:26;89001.56;;;-144.48;99.68
4123;BME280;2075;51.062;6.920;2023-01-09T11:27:19;89527.00;;;-144.48;99.03
4123;BME280;2075;51.062;6.920;2023-01-09T11:30:19;89689.31;;;-144.48;99.03
4123;BME280;2075;51.062;6.920;2023-01-09T11:33:13;88977.22;;;-144.48;99.16
4123;BME280;2075;51.062;6.920;2023-01-09T11:36:05;90172.22;;;-144.48;98.71
4123;BME280;2075;51.062;6.920;2023-01-09T11:38:54;92451.84;;;-144.48;96.76
4123;BME280;2075;51.062;6.920;2023-01-09T11:41:42;92953.44;;;-144.48;96.05
4123;BME280;2075;51.062;6.920;2023-01-09T11:44:30;92344.22;;;-144.48;96.71
4123;BME280;2075;51.062;6.920;2023-01-09T11:47:24;91487.44;;;-144.48;97.63
4123;BME280;2075;51.062;6.920;2023-01-09T11:50:21;93266.22;;;-144.48;95.03
4123;BME280;2075;51.062;6.920;2023-01-09T11:53:12;93538.38;;;-144.48;94.41
4123;BME280;2075;51.062;6.920;2023-01-09T11:55:59;93952.78;;;-144.48;92.71
4123;BME280;2075;51.062;6.920;2023-01-09T11:58:46;94111.22;;;-144.48;91.75
4123;BME280;2075;51.062;6.920;2023-01-09T12:01:50;94153.91;;;-144.48;91.10
4123;BME280;2075;51.062;6.920;2023-01-09T12:04:41;94080.75;;;-144.48;90.63
4123;BME280;2075;51.062;6.920;2023-01-09T12:11:11;94042.16;;;-144.48;92.60
4123;BME280;2075;51.062;6.920;2023-01-09T12:14:27;93729.31;;;-144.48;93.32
4123;BME280;2075;51.062;6.920;2023-01-09T12:20:44;94021.84;;;-144.48;93.19
4123;BME280;2075;51.062;6.920;2023-01-09T12:23:47;93751.66;;;-144.48;94.21
4123;BME280;2075;51.062;6.920;2023-01-09T12:26:44;93830.88;;;-144.48;94.03
4123;BME280;2075;51.062;6.920;2023-01-09T12:29:55;93509.94;;;-144.48;94.39
4123;BME280;2075;51.062;6.920;2023-01-09T12:32:53;93818.69;;;-144.48;93.55
4123;BME280;2075;51.062;6.920;2023-01-09T12:35:44;93782.13;;;-144.48;93.84
4123;BME280;2075;51.062;6.920;2023-01-09T12:38:40;93922.31;;;-144.48;93.95
4123;BME280;2075;51.062;6.920;2023-01-09T12:41:54;93676.50;;;-144.48;94.06
4123;BME280;2075;51.062;6.920;2023-01-09T12:44:52;93727.28;;;-144.48;94.30
4123;BME280;2075;51.062;6.920;2023-01-09T12:47:44;93660.25;;;-144.48;94.52
4123;BME280;2075;51.062;6.920;2023-01-09T12:53:43;92677.25;;;-144.48;96.60
4123;BME280;2075;51.062;6.920;2023-01-09T12:56:34;92697.56;;;-144.48;96.18
4123;BME280;2075;51.062;6.920;2023-01-09T12:59:26;92297.53;;;-144.48;96.39
4123;BME280;2075;51.062;6.920;2023-01-09T13:02:24;92906.72;;;-144.48;95.39
4123;BME280;2075;51.062;6.920;2023-01-09T13:05:17;93262.16;;;-144.48;94.76
4123;BME280;2075;51.062;6.920;2023-01-09T13:08:07;93690.72;;;-144.48;93.42
4123;BME280;2075;51.062;6.920;2023-01-09T13:10:57;93810.56;;;-144.48;93.00
4123;BME280;2075;51.062;6.920;2023-01-09T13:13:49;93914.19;;;-144.48;92.87
4123;BME280;2075;51.062;6.920;2023-01-09T13:16:41;93914.19;;;-144.48;92.89
4123;BME280;2075;51.062;6.920;2023-01-09T13:19:33;93769.94;;;-144.48;93.25
4123;BME280;2075;51.062;6.920;2023-01-09T13:22:22;93540.41;;;-144.48;94.37
4123;BME280;2075;51.062;6.920;2023-01-09T13:25:30;92860.00;;;-144.48;95.62
4123;BME280;2075;51.062;6.920;2023-01-09T13:28:21;93264.19;;;-144.48;94.72
4123;BME280;2075;51.062;6.920;2023-01-09T13:34:30;92967.66;;;-144.48;95.36
4123;BME280;2075;51.062;6.920;2023-01-09T13:37:21;93428.69;;;-144.48;94.21
4123;BME280;2075;51.062;6.920;2023-01-09T13:40:25;93357.59;;;-144.48;94.82
4123;BME280;2075;51.062;6.920;2023-01-09T13:43:12;93384.00;;;-144.48;94.35
4123;BME280;2075;51.062;6.920;2023-01-09T13:45:59;93331.19;;;-144.48;94.58
4123;BME280;2075;51.062;6.920;2023-01-09T13:48:45;93325.09;;;-144.48;94.41
4123;BME280;2075;51.062;6.920;2023-01-09T13:51:56;93008.28;;;-144.48;95.45
4123;BME280;2075;51.062;6.920;2023-01-09T13:58:19;93438.84;;;-144.48;94.54
4123;BME280;2075;51.062;6.920;2023-01-09T14:01:38;93593.22;;;-144.48;94.37
4123;BME280;2075;51.062;6.920;2023-01-09T14:04:45;93217.47;;;-144.48;95.09
4123;BME280;2075;51.062;6.920;2023-01-09T14:07:31;93416.50;;;-144.48;94.86
4123;BME280;2075;51.062;6.920;2023-01-09T14:10:21;93497.75;;;-144.48;94.59
4123;BME280;2075;51.062;6.920;2023-01-09T14:13:14;93160.59;;;-144.48;95.28
4123;BME280;2075;51.062;6.920;2023-01-09T14:16:04;93501.81;;;-144.48;94.64
4123;BME280;2075;51.062;6.920;2023-01-09T14:18:55;93221.53;;;-144.48;95.29
4123;BME280;2075;51.062;6.920;2023-01-09T14:21:44;92933.13;;;-144.48;95.74
4123;BME280;2075;51.062;6.920;2023-01-09T14:24:39;93115.91;;;-144.48;95.31
4123;BME280;2075;51.062;6.920;2023-01-09T14:27:49;93247.94;;;-144.48;95.40
4123;BME280;2075;51.062;6.920;2023-01-09T14:30:37;93546.50;;;-144.48;94.68
4123;BME280;2075;51.062;6.920;2023-01-09T14:33:27;93243.88;;;-144.48;95.24
4123;BME280;2075;51.062;6.920;2023-01-09T14:36:15;93217.47;;;-144.48;95.35
4123;BME280;2075;51.062;6.920;2023-01-09T14:39:06;93109.81;;;-144.48;95.76
4123;BME280;2075;51.062;6.920;2023-01-09T14:41:57;93152.47;;;-144.48;95.76
4123;BME280;2075;51.062;6.920;2023-01-09T14:44:52;93128.09;;;-144.48;95.44
4123;BME280;2075;51.062;6.920;2023-01-09T14:47:43;92535.09;;;-144.48;96.44
4123;BME280;2075;51.062;6.920;2023-01-09T14:50:32;91024.63;;;-144.48;97.26
4123;BME280;2075;51.062;6.920;2023-01-09T14:53:21;91674.22;;;-144.48;97.13
4123;BME280;2075;51.062;6.920;2023-01-09T14:56:23;92602.09;;;-144.48;96.01
4123;BME280;2075;51.062;6.920;2023-01-09T14:59:13;92575.72;;;-144.48;96.39
4123;BME280;2075;51.062;6.920;2023-01-09T15:01:58;92730.03;;;-144.48;95.95
4123;BME280;2075;51.062;6.920;2023-01-09T15:04:44;92685.38;;;-144.48;96.10
4123;BME280;2075;51.062;6.920;2023-01-09T15:07:29;92029.50;;;-144.48;97.00
4123;BME280;2075;51.062;6.920;2023-01-09T15:10:19;92520.88;;;-144.48;96.55